createdAt,value
2024-03-01T00:00:27.505Z,8.43
2024-03-01T00:02:55.178Z,8.46
2024-03-01T00:05:23.901Z,8.41
2024-03-01T00:07:51.618Z,8.43
2024-03-01T00:10:19.401Z,8.45
2024-03-01T00:12:47.319Z,8.46
2024-03-01T00:15:16.468Z,8.46
2024-03-01T00:17:44.322Z,8.46
2024-03-01T00:20:13.558Z,8.48
2024-03-01T00:22:41.378Z,8.49
2024-03-01T00:25:09.785Z,8.48
2024-03-01T00:27:37.759Z,8.48
2024-03-01T00:30:06.309Z,8.47
2024-03-01T00:32:35.930Z,8.48
2024-03-01T00:35:03.805Z,8.49
2024-03-01T00:37:31.597Z,8.51
2024-03-01T00:39:59.380Z,8.51
2024-03-01T00:42:27.122Z,8.47
2024-03-01T00:44:54.826Z,8.49
2024-03-01T00:47:22.530Z,8.46
2024-03-01T00:49:51.959Z,8.46
2024-03-01T00:52:19.763Z,8.48
2024-03-01T00:54:50.343Z,8.44
2024-03-01T00:57:18.072Z,8.48
2024-03-01T00:59:45.802Z,8.47
2024-03-01T01:02:13.577Z,8.47
2024-03-01T01:04:41.329Z,8.48
2024-03-01T01:07:10.416Z,8.46
2024-03-01T01:09:39.853Z,8.44
2024-03-01T01:12:07.987Z,8.46
2024-03-01T01:14:38.769Z,8.47
2024-03-01T01:17:06.594Z,8.47
2024-03-01T01:19:42.127Z,8.45
2024-03-01T01:22:11.534Z,8.45
2024-03-01T01:24:39.348Z,8.49
2024-03-01T01:27:07.396Z,8.51
2024-03-01T01:29:37.398Z,8.49
2024-03-01T01:32:05.366Z,8.50
2024-03-01T01:34:35.033Z,8.55
2024-03-01T01:37:04.748Z,8.52
2024-03-01T01:39:34.578Z,8.53
2024-03-01T01:42:02.420Z,8.50
2024-03-01T01:44:30.579Z,8.46
2024-03-01T01:46:58.444Z,8.45
2024-03-01T01:49:29.344Z,8.43
2024-03-01T01:51:58.554Z,8.41
2024-03-01T01:54:26.965Z,8.52
2024-03-01T01:56:56.564Z,8.52
2024-03-01T01:59:24.667Z,8.56
2024-03-01T02:01:53.146Z,8.54
2024-03-01T02:04:21.392Z,8.59
2024-03-01T02:06:50.600Z,8.57
2024-03-01T02:09:20.171Z,8.56
2024-03-01T02:11:49.240Z,8.63
2024-03-01T02:14:18.455Z,8.58
2024-03-01T02:16:48.389Z,8.63
2024-03-01T02:19:17.472Z,8.67
2024-03-01T02:21:55.030Z,8.71
2024-03-01T02:24:25.163Z,8.61
2024-03-01T02:26:57.160Z,8.60
2024-03-01T02:29:25.794Z,8.59
2024-03-01T02:31:53.505Z,8.63
2024-03-01T02:34:21.532Z,8.65
2024-03-01T02:36:49.392Z,8.64
2024-03-01T02:39:19.676Z,8.66
2024-03-01T02:41:49.778Z,8.66
2024-03-01T02:44:17.618Z,8.66
2024-03-01T02:46:45.381Z,8.64
2024-03-01T02:49:13.162Z,8.60
2024-03-01T02:51:41.667Z,8.70
2024-03-01T02:54:09.365Z,8.69
2024-03-01T02:56:37.085Z,8.70
2024-03-01T02:59:06.196Z,8.64
2024-03-01T03:01:33.993Z,8.66
2024-03-01T03:04:01.764Z,8.67
2024-03-01T03:06:29.442Z,8.60
2024-03-01T03:08:57.107Z,8.60
2024-03-01T03:11:24.869Z,8.57
2024-03-01T03:13:52.565Z,8.58
2024-03-01T03:16:22.341Z,8.58
2024-03-01T03:18:50.164Z,8.58
2024-03-01T03:21:17.951Z,8.58
2024-03-01T03:23:46.493Z,8.55
2024-03-01T03:26:14.204Z,8.46
2024-03-01T03:28:41.881Z,7.97
2024-03-01T03:31:09.662Z,7.68
2024-03-01T03:33:39.084Z,7.45
2024-03-01T03:36:10.653Z,7.30
2024-03-01T03:38:38.317Z,7.17
2024-03-01T03:41:06.384Z,7.01
2024-03-01T03:43:34.152Z,7.01
2024-03-01T03:46:02.031Z,6.94
2024-03-01T03:48:29.680Z,6.80
2024-03-01T03:50:58.718Z,6.73
2024-03-01T03:53:26.896Z,6.70
2024-03-01T03:55:54.863Z,6.77
2024-03-01T03:58:22.681Z,6.79
2024-03-01T04:24:10.566Z,6.46
2024-03-01T04:26:38.395Z,6.45
2024-03-01T04:29:07.204Z,6.30
2024-03-01T04:31:37.102Z,6.40
2024-03-01T04:34:07.610Z,6.41
2024-03-01T04:36:35.662Z,6.29
2024-03-01T04:39:07.127Z,6.27
2024-03-01T04:41:36.385Z,6.34
2024-03-01T04:44:05.156Z,6.25
2024-03-01T04:46:33.126Z,6.29
2024-03-01T04:49:00.934Z,6.24
2024-03-01T04:51:29.943Z,6.21
2024-03-01T04:53:57.671Z,6.10
2024-03-01T04:56:25.345Z,6.18
2024-03-01T04:58:54.458Z,6.13
2024-03-01T05:01:24.111Z,6.14
2024-03-01T05:03:52.062Z,6.14
2024-03-01T05:06:20.076Z,6.13
2024-03-01T05:08:48.223Z,6.10
2024-03-01T05:11:18.627Z,6.08
2024-03-01T05:13:46.614Z,6.01
2024-03-01T05:16:20.070Z,6.05
2024-03-01T05:18:47.946Z,6.03
2024-03-01T05:21:15.655Z,6.05
2024-03-01T05:23:44.079Z,6.00
2024-03-01T05:26:11.877Z,5.99
2024-03-01T05:28:39.990Z,6.03
2024-03-01T05:31:18.777Z,6.04
2024-03-01T05:33:52.513Z,6.05
2024-03-01T05:36:20.558Z,6.03
2024-03-01T05:38:48.236Z,5.96
2024-03-01T05:41:15.938Z,5.98
2024-03-01T05:43:43.662Z,6.00
2024-03-01T05:46:17.100Z,6.02
2024-03-01T05:48:46.669Z,5.97
2024-03-01T05:51:15.664Z,5.96
2024-03-01T05:53:43.988Z,5.94
2024-03-01T05:56:19.663Z,5.99
2024-03-01T05:58:48.361Z,6.07
2024-03-01T06:01:18.142Z,6.08
2024-03-01T06:03:46.375Z,6.06
2024-03-01T06:06:16.662Z,6.07
2024-03-01T06:08:44.798Z,6.08
2024-03-01T06:11:12.670Z,6.05
2024-03-01T06:13:40.809Z,5.96
2024-03-01T06:16:09.409Z,5.96
2024-03-01T06:18:37.266Z,5.89
2024-03-01T06:21:05.481Z,5.89
2024-03-01T06:23:34.590Z,5.84
2024-03-01T06:26:02.520Z,5.89
2024-03-01T06:28:30.334Z,5.85
2024-03-01T06:30:58.166Z,5.85
2024-03-01T06:33:25.918Z,5.78
2024-03-01T06:35:57.262Z,5.76
2024-03-01T06:38:25.116Z,5.77
2024-03-01T06:40:54.494Z,5.73
2024-03-01T06:43:22.363Z,5.61
2024-03-01T06:45:50.080Z,5.65
2024-03-01T06:48:21.289Z,5.59
2024-03-01T06:50:50.234Z,5.58
2024-03-01T06:53:18.307Z,5.53
2024-03-01T06:55:46.075Z,5.54
2024-03-01T06:58:15.221Z,5.44
2024-03-01T07:00:47.840Z,5.49
2024-03-01T07:03:15.653Z,5.42
2024-03-01T07:05:43.619Z,5.33
2024-03-01T07:08:11.289Z,5.33
2024-03-01T07:10:39.346Z,5.37
2024-03-01T07:13:07.163Z,5.38
2024-03-01T07:15:38.222Z,5.44
2024-03-01T07:18:06.508Z,5.42
2024-03-01T07:20:34.371Z,5.43
2024-03-01T07:23:02.079Z,5.42
2024-03-01T07:25:29.849Z,5.45
2024-03-01T07:27:57.725Z,5.48
2024-03-01T07:30:25.482Z,5.51
2024-03-01T07:32:54.764Z,5.53
2024-03-01T07:35:22.552Z,5.58
2024-03-01T07:37:50.590Z,5.62
2024-03-01T07:40:18.425Z,5.66
2024-03-01T07:42:46.481Z,5.72
2024-03-01T07:45:14.646Z,5.76
2024-03-01T07:47:44.287Z,5.80
2024-03-01T07:50:13.783Z,5.83
2024-03-01T07:52:41.653Z,5.87
2024-03-01T07:55:09.492Z,5.85
2024-03-01T07:57:39.383Z,5.88
2024-03-01T08:00:09.294Z,5.85
2024-03-01T08:02:37.184Z,5.93
2024-03-01T08:05:07.538Z,5.96
2024-03-01T08:07:36.583Z,5.98
2024-03-01T08:10:05.963Z,6.06
2024-03-01T08:12:33.746Z,6.07
2024-03-01T08:15:08.379Z,6.06
2024-03-01T08:17:36.182Z,6.14
2024-03-01T08:20:12.478Z,6.22
2024-03-01T08:22:41.586Z,6.18
2024-03-01T08:25:12.144Z,6.22
2024-03-01T08:27:41.387Z,6.26
2024-03-01T08:30:36.512Z,6.30
2024-03-01T08:33:04.572Z,6.38
2024-03-01T08:35:32.545Z,6.37
2024-03-01T08:38:02.231Z,6.41
2024-03-01T08:40:50.467Z,6.41
2024-03-01T08:43:18.345Z,6.45
2024-03-01T08:45:46.592Z,6.37
2024-03-01T08:48:20.021Z,6.40
2024-03-01T08:50:50.738Z,6.52
2024-03-01T08:54:01.577Z,6.55
2024-03-01T08:56:35.739Z,6.66
2024-03-01T08:59:06.761Z,6.67
2024-03-01T09:01:47.091Z,6.71
2024-03-01T09:04:28.688Z,6.73
2024-03-01T09:07:09.650Z,6.79
2024-03-01T09:09:38.497Z,6.75
2024-03-01T09:12:10.821Z,6.83
2024-03-01T09:14:38.562Z,6.89
2024-03-01T09:17:07.633Z,6.94
2024-03-01T09:19:40.708Z,7.02
2024-03-01T09:22:08.665Z,7.11
2024-03-01T09:24:39.631Z,7.10
2024-03-01T09:27:22.311Z,6.80
2024-03-01T09:29:50.071Z,6.95
2024-03-01T09:32:18.177Z,7.03
2024-03-01T09:34:47.120Z,7.22
2024-03-01T09:37:17.446Z,7.16
2024-03-01T09:39:46.987Z,7.08
2024-03-01T09:42:38.870Z,7.17
2024-03-01T09:45:41.684Z,7.32
2024-03-01T09:48:16.560Z,7.44
2024-03-01T09:51:03.121Z,7.48
2024-03-01T09:53:44.331Z,7.33
2024-03-01T09:56:19.377Z,7.52
2024-03-01T09:58:57.878Z,7.68
2024-03-01T10:01:31.268Z,7.56
2024-03-01T10:04:12.631Z,7.68
2024-03-01T10:07:02.349Z,7.79
2024-03-01T10:09:50.128Z,7.64
2024-03-01T10:12:28.852Z,7.84
2024-03-01T10:15:02.873Z,7.84
2024-03-01T10:17:43.325Z,7.90
2024-03-01T10:20:26.444Z,7.69
2024-03-01T10:23:08.479Z,7.52
2024-03-01T10:25:53.035Z,7.63
2024-03-01T10:28:34.531Z,7.58
2024-03-01T10:31:12.737Z,7.95
2024-03-01T10:33:56.637Z,7.88
2024-03-01T10:36:36.073Z,7.72
2024-03-01T10:39:08.815Z,7.71
2024-03-01T10:41:49.599Z,7.81
2024-03-01T10:44:22.744Z,7.69
2024-03-01T10:46:57.572Z,7.81
2024-03-01T10:49:32.257Z,7.70
2024-03-01T10:52:07.516Z,7.86
2024-03-01T10:54:37.682Z,8.02
2024-03-01T10:57:09.560Z,7.85
2024-03-01T10:59:49.124Z,7.81
2024-03-01T11:02:22.795Z,7.98
2024-03-01T11:04:57.803Z,7.94
2024-03-01T11:07:33.765Z,7.86
2024-03-01T11:10:04.864Z,7.96
2024-03-01T11:12:37.618Z,8.11
2024-03-01T11:15:14.717Z,8.23
2024-03-01T11:17:47.487Z,7.95
2024-03-01T11:20:22.194Z,8.09
2024-03-01T11:23:01.609Z,8.05
2024-03-01T11:25:41.025Z,8.02
2024-03-01T11:28:12.616Z,8.22
2024-03-01T11:30:46.417Z,8.35
2024-03-01T11:33:17.851Z,8.14
2024-03-01T11:35:51.012Z,8.16
2024-03-01T11:38:29.910Z,8.30
2024-03-01T11:41:21.142Z,8.24
2024-03-01T11:44:03.642Z,8.46
2024-03-01T11:46:57.693Z,8.57
2024-03-01T11:49:43.352Z,8.66
2024-03-01T11:52:27.205Z,8.47
2024-03-01T11:55:07.432Z,8.36
2024-03-01T11:57:39.476Z,8.43
2024-03-01T12:00:37.145Z,8.54
2024-03-01T12:03:49.477Z,8.48
2024-03-01T12:06:29.264Z,8.39
2024-03-01T12:09:09.136Z,8.18
2024-03-01T12:11:51.554Z,8.22
2024-03-01T12:14:29.763Z,8.20
2024-03-01T12:17:05.105Z,8.17
2024-03-01T12:19:41.876Z,8.16
2024-03-01T12:22:32.337Z,8.21
2024-03-01T12:25:01.799Z,8.27
2024-03-01T12:27:40.940Z,8.30
2024-03-01T12:30:18.667Z,8.31
2024-03-01T12:32:57.712Z,8.32
2024-03-01T12:35:36.274Z,8.34
2024-03-01T12:38:17.712Z,8.27
2024-03-01T12:40:57.843Z,8.26
2024-03-01T12:43:45.679Z,8.24
2024-03-01T12:46:33.278Z,8.26
2024-03-01T12:49:17.245Z,8.23
2024-03-01T12:51:58.285Z,8.25
2024-03-01T12:54:39.766Z,8.34
2024-03-01T12:57:21.038Z,8.28
2024-03-01T12:59:55.833Z,8.38
2024-03-01T13:02:50.910Z,8.36
2024-03-01T13:05:26.071Z,8.39
2024-03-01T13:07:57.170Z,8.33
2024-03-01T13:10:27.956Z,8.32
2024-03-01T13:12:59.291Z,8.29
2024-03-01T13:15:32.954Z,8.26
2024-03-01T13:18:09.198Z,8.18
2024-03-01T13:20:47.710Z,8.21
2024-03-01T13:23:30.927Z,8.24
2024-03-01T13:26:15.410Z,8.21
2024-03-01T13:28:52.752Z,8.22
2024-03-01T13:31:27.707Z,8.22
2024-03-01T13:34:00.234Z,8.15
2024-03-01T13:36:31.759Z,8.19
2024-03-01T13:39:12.656Z,8.19
2024-03-01T13:41:50.109Z,8.18
2024-03-01T13:44:25.054Z,8.12
2024-03-01T13:47:02.195Z,8.11
2024-03-01T13:49:38.212Z,8.12
2024-03-01T13:52:08.862Z,7.95
2024-03-01T13:54:37.298Z,8.01
2024-03-01T13:57:12.634Z,8.02
2024-03-01T13:59:40.507Z,8.04
2024-03-01T14:02:09.045Z,8.09
2024-03-01T14:04:37.170Z,8.18
2024-03-01T14:07:05.799Z,8.25
2024-03-01T14:09:34.051Z,8.20
2024-03-01T14:12:01.759Z,8.19
2024-03-01T14:14:30.764Z,8.22
2024-03-01T14:17:00.690Z,8.19
2024-03-01T14:19:28.419Z,8.17
2024-03-01T14:21:56.223Z,8.18
2024-03-01T14:24:23.981Z,8.21
2024-03-01T14:26:51.837Z,8.18
2024-03-01T14:29:19.614Z,8.18
2024-03-01T14:32:07.415Z,8.27
2024-03-01T14:34:39.701Z,8.21
2024-03-01T14:37:10.996Z,8.20
2024-03-01T14:39:40.580Z,8.23
2024-03-01T14:42:18.358Z,8.29
2024-03-01T14:44:46.552Z,8.29
2024-03-01T14:47:15.978Z,8.32
2024-03-01T14:49:44.496Z,8.38
2024-03-01T14:52:12.860Z,8.45
2024-03-01T14:54:41.012Z,8.37
2024-03-01T14:57:08.845Z,8.34
2024-03-01T14:59:36.651Z,8.35
2024-03-01T15:02:05.369Z,8.39
2024-03-01T15:04:34.980Z,8.40
2024-03-01T15:07:04.938Z,8.37
2024-03-01T15:09:32.724Z,8.32
2024-03-01T15:12:08.095Z,8.31
2024-03-01T15:14:35.799Z,8.37
2024-03-01T15:17:09.174Z,8.50
2024-03-01T15:19:42.750Z,8.56
2024-03-01T15:22:13.741Z,8.60
2024-03-01T15:24:41.674Z,8.60
2024-03-01T15:27:09.570Z,8.55
2024-03-01T15:29:37.374Z,8.52
2024-03-01T15:32:05.804Z,8.53
2024-03-01T15:34:33.593Z,8.52
2024-03-01T15:37:04.449Z,8.50
2024-03-01T15:39:32.293Z,8.54
2024-03-01T15:42:00.093Z,8.53
2024-03-01T15:44:27.871Z,8.53
2024-03-01T15:46:55.796Z,8.50
2024-03-01T15:49:23.940Z,8.43
2024-03-01T15:51:51.886Z,8.41
2024-03-01T15:54:20.982Z,8.35
2024-03-01T15:56:48.735Z,8.33
2024-03-01T15:59:17.120Z,8.35
2024-03-01T16:01:45.187Z,8.36
2024-03-01T16:04:14.153Z,8.36
2024-03-01T16:06:42.215Z,8.42
2024-03-01T16:09:10.507Z,8.40
2024-03-01T16:11:43.645Z,8.39
2024-03-01T16:14:13.119Z,8.38
2024-03-01T16:16:40.964Z,8.36
2024-03-01T16:19:09.243Z,8.30
2024-03-01T16:21:37.303Z,8.26
2024-03-01T16:24:10.292Z,8.21
2024-03-01T16:26:38.513Z,8.18
2024-03-01T16:29:08.023Z,8.14
2024-03-01T16:31:36.299Z,8.02
2024-03-01T16:34:05.473Z,7.86
2024-03-01T16:36:33.372Z,7.75
2024-03-01T16:39:01.490Z,7.71
2024-03-01T16:41:40.359Z,7.61
2024-03-01T16:44:29.896Z,7.58
2024-03-01T16:46:57.993Z,7.56
2024-03-01T16:49:38.193Z,7.60
2024-03-01T16:52:08.734Z,7.58
2024-03-01T16:54:37.021Z,7.53
2024-03-01T16:57:09.965Z,7.54
2024-03-01T16:59:40.058Z,7.47
2024-03-01T17:02:21.940Z,7.49
2024-03-01T17:04:50.390Z,7.48
2024-03-01T17:07:23.756Z,7.48
2024-03-01T17:09:52.836Z,7.44
2024-03-01T17:12:21.093Z,7.47
2024-03-01T17:14:50.151Z,7.46
2024-03-01T17:17:18.269Z,7.37
2024-03-01T17:19:48.842Z,7.26
2024-03-01T17:22:18.081Z,7.35
2024-03-01T17:24:47.538Z,7.31
2024-03-01T17:27:15.504Z,7.29
2024-03-01T17:29:44.344Z,7.33
2024-03-01T17:32:13.571Z,7.31
2024-03-01T17:34:41.350Z,7.25
2024-03-01T17:37:09.255Z,7.22
2024-03-01T17:39:37.209Z,7.22
2024-03-01T17:42:05.646Z,7.19
2024-03-01T17:44:33.365Z,7.26
2024-03-01T17:47:01.127Z,7.24
2024-03-01T17:49:30.347Z,7.21
2024-03-01T17:51:58.676Z,7.18
2024-03-01T17:54:26.380Z,7.14
2024-03-01T17:56:54.103Z,7.17
2024-03-01T17:59:22.957Z,7.06
2024-03-01T18:01:50.728Z,7.06
2024-03-01T18:04:22.583Z,6.99
2024-03-01T18:06:51.738Z,6.96
2024-03-01T18:09:19.510Z,6.91
2024-03-01T18:11:47.355Z,6.85
2024-03-01T18:14:15.135Z,6.86
2024-03-01T18:16:43.184Z,6.84
2024-03-01T18:19:14.039Z,6.82
2024-03-01T18:21:42.147Z,6.91
2024-03-01T18:24:13.840Z,6.92
2024-03-01T18:26:43.116Z,6.91
2024-03-01T18:29:10.937Z,6.86
2024-03-01T18:31:38.896Z,6.82
2024-03-01T18:34:06.650Z,6.80
2024-03-01T18:36:34.363Z,6.80
2024-03-01T18:39:02.416Z,6.79
2024-03-01T18:41:33.734Z,6.80
2024-03-01T18:44:02.881Z,6.79
2024-03-01T18:46:31.095Z,6.84
2024-03-01T18:48:59.929Z,6.83
2024-03-01T18:51:27.761Z,6.81
2024-03-01T18:53:55.442Z,6.86
2024-03-01T18:56:23.267Z,6.87
2024-03-01T18:58:52.335Z,6.83
2024-03-01T19:01:20.248Z,6.86
2024-03-01T19:03:48.276Z,6.88
2024-03-01T19:06:16.041Z,6.87
2024-03-01T19:08:43.726Z,6.85
2024-03-01T19:11:11.558Z,6.80
2024-03-01T19:13:39.504Z,6.86
2024-03-01T19:16:08.800Z,6.89
2024-03-01T19:18:36.525Z,6.86
2024-03-01T19:21:04.573Z,6.84
2024-03-01T19:23:33.351Z,6.79
2024-03-01T19:26:03.786Z,6.85
2024-03-01T19:28:32.706Z,6.83
2024-03-01T19:31:01.977Z,6.82
2024-03-01T19:33:31.093Z,6.74
2024-03-01T19:36:00.413Z,6.72
2024-03-01T19:38:28.198Z,6.74
2024-03-01T19:40:56.276Z,6.69
2024-03-01T19:43:24.325Z,6.67
2024-03-01T19:45:52.576Z,6.67
2024-03-01T19:48:22.343Z,6.66
2024-03-01T19:50:51.777Z,6.63
2024-03-01T19:53:19.692Z,6.64
2024-03-01T19:55:47.459Z,6.63
2024-03-01T19:58:15.217Z,6.63
2024-03-01T20:00:42.977Z,6.64
2024-03-01T20:03:10.666Z,6.66
2024-03-01T20:05:38.832Z,6.68
2024-03-01T20:08:08.323Z,6.66
2024-03-01T20:10:36.082Z,6.61
2024-03-01T20:13:04.053Z,6.58
2024-03-01T20:15:33.546Z,6.54
2024-03-01T20:18:01.346Z,6.51
2024-03-01T20:20:29.080Z,6.48
2024-03-01T20:22:56.810Z,6.44
2024-03-01T20:25:26.477Z,6.46
2024-03-01T20:27:54.332Z,6.45
2024-03-01T20:30:22.164Z,6.44
2024-03-01T20:32:51.150Z,6.41
2024-03-01T20:35:19.073Z,6.40
2024-03-01T20:37:47.077Z,6.38
2024-03-01T20:40:15.273Z,6.39
2024-03-01T20:42:44.394Z,6.40
2024-03-01T20:45:12.143Z,6.40
2024-03-01T20:47:39.918Z,6.42
2024-03-01T20:50:08.896Z,6.43
2024-03-01T20:52:36.975Z,6.45
2024-03-01T20:55:06.831Z,6.43
2024-03-01T20:57:35.011Z,6.45
2024-03-01T21:00:04.327Z,6.46
2024-03-01T21:02:32.005Z,6.50
2024-03-01T21:04:59.713Z,6.50
2024-03-01T21:07:29.060Z,6.49
2024-03-01T21:09:59.788Z,6.50
2024-03-01T21:12:27.476Z,6.51
2024-03-01T21:14:55.214Z,6.51
2024-03-01T21:17:24.615Z,6.52
2024-03-01T21:19:52.979Z,6.51
2024-03-01T21:24:52.401Z,6.61
2024-03-01T21:27:20.124Z,6.66
2024-03-01T21:29:47.811Z,6.71
2024-03-01T21:32:21.766Z,6.74
2024-03-01T21:34:54.134Z,6.76
2024-03-01T21:37:21.835Z,6.78
2024-03-01T21:39:49.584Z,6.78
2024-03-01T21:42:17.663Z,6.78
2024-03-01T21:44:45.762Z,6.79
2024-03-01T21:47:13.518Z,6.82
2024-03-01T21:49:41.468Z,6.87
2024-03-01T21:52:11.298Z,6.87
2024-03-01T21:54:40.142Z,6.87
2024-03-01T21:57:07.914Z,6.92
2024-03-01T21:59:37.418Z,6.85
2024-03-01T22:02:07.528Z,6.90
2024-03-01T22:04:35.569Z,6.98
2024-03-01T22:07:03.347Z,6.90
2024-03-01T22:09:32.521Z,6.89
2024-03-01T22:12:00.273Z,6.96
2024-03-01T22:14:27.980Z,6.99
2024-03-01T22:16:56.408Z,6.97
2024-03-01T22:19:24.437Z,6.92
2024-03-01T22:21:52.407Z,6.93
2024-03-01T22:24:20.318Z,7.01
2024-03-01T22:26:49.554Z,7.04
2024-03-01T22:29:17.275Z,7.09
2024-03-01T22:31:45.502Z,6.95
2024-03-01T22:34:14.049Z,7.03
2024-03-01T22:36:42.105Z,7.24
2024-03-01T22:39:10.569Z,7.13
2024-03-01T22:41:38.280Z,7.19
2024-03-01T22:44:07.399Z,7.25
2024-03-01T22:46:35.210Z,7.34
2024-03-01T22:49:03.190Z,7.36
2024-03-01T22:51:32.928Z,7.40
2024-03-01T22:54:00.963Z,7.50
2024-03-01T22:56:33.460Z,7.38
2024-03-01T22:59:01.519Z,7.48
2024-03-01T23:01:33.312Z,7.51
2024-03-01T23:04:02.099Z,7.49
2024-03-01T23:06:30.100Z,7.62
2024-03-01T23:08:58.964Z,7.57
2024-03-01T23:11:39.064Z,7.52
2024-03-01T23:14:10.564Z,7.60
2024-03-01T23:16:39.597Z,7.57
2024-03-01T23:19:07.398Z,7.60
2024-03-01T23:21:35.147Z,7.68
2024-03-01T23:24:02.875Z,7.74
2024-03-01T23:26:31.155Z,7.80
2024-03-01T23:28:58.883Z,7.84
2024-03-01T23:31:26.620Z,7.74
2024-03-01T23:33:55.769Z,7.82
2024-03-01T23:36:23.602Z,7.85
2024-03-01T23:38:51.359Z,7.82
2024-03-01T23:41:19.127Z,7.81
2024-03-01T23:43:46.801Z,7.72
2024-03-01T23:46:15.449Z,7.83
2024-03-01T23:48:43.729Z,7.83
2024-03-01T23:51:15.040Z,7.81
2024-03-01T23:53:43.118Z,7.92
2024-03-01T23:56:10.782Z,7.89
2024-03-01T23:58:40.374Z,7.87
